createdAt,value
2022-12-23T00:02:19.341Z,75.11
2022-12-23T00:05:23.315Z,75.29
2022-12-23T00:08:27.490Z,76.15
2022-12-23T00:11:31.392Z,75.67
2022-12-23T00:14:35.231Z,75.10
2022-12-23T00:17:39.324Z,75.23
2022-12-23T00:20:43.625Z,76.71
2022-12-23T00:23:47.475Z,75.57
2022-12-23T00:26:51.321Z,76.18
2022-12-23T00:29:55.195Z,74.87
2022-12-23T00:32:59.201Z,77.21
2022-12-23T00:36:03.286Z,77.86
2022-12-23T00:39:07.133Z,77.03
2022-12-23T00:42:11.122Z,75.45
2022-12-23T00:45:15.299Z,76.06
2022-12-23T00:48:19.229Z,76.58
2022-12-23T00:51:23.172Z,75.64
2022-12-23T00:54:27.012Z,76.57
2022-12-23T00:57:31.111Z,75.59
2022-12-23T01:00:35.177Z,75.89
2022-12-23T01:03:39.172Z,75.70
2022-12-23T01:06:43.109Z,76.87
2022-12-23T01:09:47.206Z,76.15
2022-12-23T01:12:51.136Z,75.51
2022-12-23T01:15:55.457Z,76.15
2022-12-23T01:18:59.364Z,76.13
2022-12-23T01:22:03.223Z,75.82
2022-12-23T01:25:07.321Z,75.92
2022-12-23T01:28:11.343Z,75.24
2022-12-23T01:31:15.445Z,74.96
2022-12-23T01:34:19.752Z,75.28
2022-12-23T01:37:23.657Z,75.30
2022-12-23T01:40:27.811Z,75.36
2022-12-23T01:43:31.666Z,75.11
2022-12-23T01:46:35.761Z,74.64
2022-12-23T01:49:39.537Z,75.82
2022-12-23T01:52:43.446Z,75.72
2022-12-23T01:55:47.534Z,74.99
2022-12-23T01:58:51.767Z,76.94
2022-12-23T02:01:55.501Z,76.42
2022-12-23T02:04:59.235Z,77.24
2022-12-23T02:08:03.237Z,76.77
2022-12-23T02:11:07.263Z,76.00
2022-12-23T02:14:11.179Z,76.12
2022-12-23T02:17:16.605Z,76.38
2022-12-23T02:20:20.634Z,75.55
2022-12-23T02:23:24.549Z,75.98
2022-12-23T02:26:28.587Z,76.24
2022-12-23T02:29:32.619Z,76.40
2022-12-23T02:32:36.506Z,78.59
2022-12-23T02:35:40.469Z,78.59
2022-12-23T02:38:44.488Z,77.88
2022-12-23T02:41:48.544Z,76.57
2022-12-23T02:44:52.321Z,75.56
2022-12-23T02:47:56.042Z,75.92
2022-12-23T02:50:59.961Z,76.30
2022-12-23T02:54:04.057Z,77.12
2022-12-23T02:57:07.818Z,77.18
2022-12-23T03:00:11.631Z,76.81
2022-12-23T03:03:15.904Z,77.70
2022-12-23T03:06:20.007Z,78.07
2022-12-23T03:09:23.874Z,76.61
2022-12-23T03:12:27.914Z,76.19
2022-12-23T03:15:31.979Z,77.10
2022-12-23T03:18:35.776Z,76.58
2022-12-23T03:21:39.881Z,78.39
2022-12-23T03:24:44.064Z,77.14
2022-12-23T03:27:47.987Z,77.17
2022-12-23T03:30:51.857Z,77.70
2022-12-23T03:33:55.828Z,77.38
2022-12-23T03:36:59.872Z,77.22
2022-12-23T03:40:03.715Z,76.24
2022-12-23T03:43:07.356Z,77.34
2022-12-23T03:46:11.245Z,77.65
2022-12-23T03:49:15.274Z,77.85
2022-12-23T03:52:21.634Z,76.66
2022-12-23T03:55:25.255Z,76.74
2022-12-23T03:58:29.287Z,76.05
2022-12-23T04:01:33.559Z,77.53
2022-12-23T04:04:37.550Z,77.68
2022-12-23T04:07:41.639Z,76.73
2022-12-23T04:10:45.618Z,76.06
2022-12-23T04:13:49.602Z,75.83
2022-12-23T04:16:53.615Z,76.61
2022-12-23T04:19:57.648Z,76.16
2022-12-23T04:23:01.403Z,76.39
2022-12-23T04:26:05.432Z,76.12
2022-12-23T04:29:09.362Z,77.69
2022-12-23T04:32:13.607Z,77.63
2022-12-23T04:35:17.521Z,77.24
2022-12-23T04:38:21.380Z,77.63
2022-12-23T04:41:25.368Z,77.74
2022-12-23T04:44:29.009Z,77.39
2022-12-23T04:47:33.021Z,76.86
2022-12-23T04:50:36.752Z,78.61
2022-12-23T04:53:40.922Z,79.95
2022-12-23T04:56:45.063Z,79.28
2022-12-23T04:59:49.118Z,79.80
2022-12-23T05:02:53.123Z,79.98
2022-12-23T05:05:56.991Z,79.93
2022-12-23T05:09:00.919Z,78.79
2022-12-23T05:12:04.883Z,78.32
2022-12-23T05:15:08.948Z,77.22
2022-12-23T05:18:12.759Z,78.65
2022-12-23T05:21:16.826Z,79.20
2022-12-23T05:24:20.725Z,81.06
2022-12-23T05:27:24.729Z,81.66
2022-12-23T05:30:28.782Z,81.29
2022-12-23T05:33:32.867Z,79.46
2022-12-23T05:36:37.039Z,80.65
2022-12-23T05:39:41.202Z,80.28
2022-12-23T05:42:45.246Z,79.54
2022-12-23T05:45:49.540Z,80.64
2022-12-23T05:48:53.383Z,81.42
2022-12-23T05:51:57.673Z,80.21
2022-12-23T05:55:01.754Z,80.09
2022-12-23T05:58:05.726Z,79.74
2022-12-23T06:01:09.628Z,80.10
2022-12-23T06:04:13.577Z,79.74
2022-12-23T06:07:17.620Z,80.23
2022-12-23T06:10:21.604Z,80.37
2022-12-23T06:13:25.548Z,80.30
2022-12-23T06:16:29.520Z,78.88
2022-12-23T06:19:33.483Z,78.11
2022-12-23T06:22:37.479Z,78.52
2022-12-23T06:25:41.246Z,77.85
2022-12-23T06:28:45.230Z,78.23
2022-12-23T06:31:49.272Z,79.76
2022-12-23T06:34:54.663Z,79.32
2022-12-23T06:37:58.530Z,79.75
2022-12-23T06:41:02.488Z,79.84
2022-12-23T06:44:06.351Z,78.43
2022-12-23T06:47:10.347Z,79.44
2022-12-23T06:50:14.527Z,79.22
2022-12-23T06:53:18.430Z,79.58
2022-12-23T06:56:22.474Z,79.48
2022-12-23T06:59:26.529Z,78.64
2022-12-23T07:02:30.717Z,78.93
2022-12-23T07:05:37.444Z,78.82
2022-12-23T07:08:41.898Z,79.39
2022-12-23T07:11:45.672Z,79.59
2022-12-23T07:14:49.634Z,80.13
2022-12-23T07:17:53.522Z,79.60
2022-12-23T07:20:57.569Z,80.66
2022-12-23T07:24:01.563Z,80.44
2022-12-23T07:27:05.411Z,79.30
2022-12-23T07:30:09.579Z,79.08
2022-12-23T07:33:13.773Z,78.77
2022-12-23T07:36:17.908Z,79.78
2022-12-23T07:39:21.723Z,78.37
2022-12-23T07:42:44.249Z,79.34
2022-12-23T07:45:52.584Z,79.23
2022-12-23T07:49:01.440Z,79.05
2022-12-23T07:52:05.360Z,79.28
2022-12-23T07:55:09.507Z,77.54
2022-12-23T07:58:13.760Z,77.55
2022-12-23T08:01:17.909Z,77.73
2022-12-23T08:04:21.663Z,78.15
2022-12-23T08:07:25.761Z,76.78
2022-12-23T08:10:29.947Z,78.28
2022-12-23T08:13:34.044Z,78.67
2022-12-23T08:16:43.393Z,78.87
2022-12-23T08:19:47.933Z,79.50
2022-12-23T08:22:51.675Z,77.61
2022-12-23T08:25:55.748Z,78.19
2022-12-23T08:28:59.822Z,79.92
2022-12-23T08:32:06.199Z,78.71
2022-12-23T08:35:10.143Z,79.24
2022-12-23T08:38:14.176Z,79.34
2022-12-23T08:41:18.214Z,79.08
2022-12-23T08:44:22.241Z,78.46
2022-12-23T08:47:26.307Z,77.99
2022-12-23T08:50:30.329Z,77.67
2022-12-23T08:53:34.382Z,77.97
2022-12-23T08:56:38.350Z,78.27
2022-12-23T08:59:42.350Z,78.38
2022-12-23T09:02:46.402Z,78.33
2022-12-23T09:05:50.898Z,78.64
2022-12-23T09:08:54.771Z,78.56
2022-12-23T09:11:58.913Z,79.45
2022-12-23T09:15:02.945Z,79.69
2022-12-23T09:18:07.047Z,78.80
2022-12-23T09:21:10.793Z,78.45
2022-12-23T09:24:14.675Z,77.02
2022-12-23T09:27:18.842Z,77.81
2022-12-23T09:30:22.798Z,78.43
2022-12-23T09:33:26.796Z,77.65
2022-12-23T09:36:30.634Z,79.40
2022-12-23T09:39:34.435Z,78.15
2022-12-23T09:42:38.485Z,79.26
2022-12-23T09:45:42.395Z,79.65
2022-12-23T09:48:46.541Z,78.34
2022-12-23T09:51:50.181Z,78.60
2022-12-23T09:54:54.414Z,78.40
2022-12-23T09:57:58.603Z,79.62
2022-12-23T10:01:02.605Z,78.99
2022-12-23T10:04:06.736Z,78.85
2022-12-23T10:07:10.722Z,78.92
2022-12-23T10:10:14.594Z,79.84
2022-12-23T10:13:18.545Z,78.65
2022-12-23T10:16:22.493Z,78.56
2022-12-23T10:19:26.419Z,77.71
2022-12-23T10:22:30.808Z,77.51
2022-12-23T10:25:34.899Z,79.86
2022-12-23T10:28:39.010Z,78.61
2022-12-23T10:31:43.194Z,77.33
2022-12-23T10:34:47.269Z,77.50
2022-12-23T10:37:51.983Z,78.59
2022-12-23T10:40:56.130Z,78.15
2022-12-23T10:43:59.832Z,80.93
2022-12-23T10:47:03.986Z,79.79
2022-12-23T10:50:08.046Z,83.21
2022-12-23T10:53:12.355Z,82.05
2022-12-23T10:56:16.752Z,82.29
2022-12-23T10:59:20.432Z,81.59
2022-12-23T11:02:24.456Z,81.12
2022-12-23T11:05:28.805Z,81.04
2022-12-23T11:08:32.757Z,82.09
2022-12-23T11:11:36.738Z,83.45
2022-12-23T11:14:40.665Z,85.30
2022-12-23T11:17:45.257Z,84.63
2022-12-23T11:20:49.271Z,84.80
2022-12-23T11:23:55.567Z,83.96
2022-12-23T11:26:59.538Z,82.96
2022-12-23T11:30:03.366Z,83.51
2022-12-23T11:33:07.525Z,84.00
2022-12-23T11:36:11.411Z,81.89
2022-12-23T11:39:15.493Z,81.60
2022-12-23T11:42:19.533Z,82.60
2022-12-23T11:45:23.651Z,82.57
2022-12-23T11:48:27.549Z,82.63
2022-12-23T11:51:31.458Z,83.28
2022-12-23T11:54:35.590Z,82.56
2022-12-23T11:57:39.756Z,81.91
2022-12-23T12:00:43.746Z,81.92
2022-12-23T12:03:48.190Z,82.13
2022-12-23T12:06:56.282Z,81.40
2022-12-23T12:10:00.728Z,81.07
2022-12-23T12:13:04.922Z,82.55
2022-12-23T12:16:09.070Z,82.45
2022-12-23T12:19:12.952Z,81.99
2022-12-23T12:22:17.240Z,82.21
2022-12-23T12:25:24.969Z,81.43
2022-12-23T12:28:30.359Z,80.91
2022-12-23T12:31:34.336Z,82.79
2022-12-23T12:34:54.918Z,81.91
2022-12-23T12:37:58.697Z,81.96
2022-12-23T12:41:02.776Z,81.92
2022-12-23T12:44:06.602Z,81.08
2022-12-23T12:47:36.273Z,80.68
2022-12-23T12:50:34.718Z,79.41
2022-12-23T12:53:38.740Z,79.35
2022-12-23T12:56:43.156Z,80.81
2022-12-23T12:59:46.951Z,81.88
2022-12-23T13:02:50.776Z,80.30
2022-12-23T13:05:54.833Z,80.21
2022-12-23T13:08:58.910Z,78.98
2022-12-23T13:12:03.974Z,78.77
2022-12-23T13:15:08.072Z,78.45
2022-12-23T13:18:12.037Z,79.17
2022-12-23T13:21:16.056Z,78.84
2022-12-23T13:24:20.140Z,79.30
2022-12-23T13:27:24.112Z,79.06
2022-12-23T13:30:28.113Z,79.71
2022-12-23T13:33:31.970Z,79.16
2022-12-23T13:36:36.196Z,81.62
2022-12-23T13:39:40.830Z,80.39
2022-12-23T13:42:45.169Z,80.69
2022-12-23T13:45:49.052Z,79.10
2022-12-23T13:48:52.989Z,79.47
2022-12-23T13:51:57.157Z,78.77
2022-12-23T13:55:01.427Z,77.42
2022-12-23T13:58:05.373Z,78.06
2022-12-23T14:01:09.481Z,77.90
2022-12-23T14:04:13.662Z,78.92
2022-12-23T14:07:19.694Z,79.28
2022-12-23T14:10:23.524Z,78.45
2022-12-23T14:13:27.723Z,79.67
2022-12-23T14:16:31.604Z,78.90
2022-12-23T14:19:35.798Z,78.05
2022-12-23T14:22:39.628Z,78.91
2022-12-23T14:25:43.705Z,79.33
2022-12-23T14:28:47.752Z,81.14
2022-12-23T14:31:51.645Z,79.72
2022-12-23T14:34:56.435Z,80.02
2022-12-23T14:38:00.407Z,79.43
2022-12-23T14:41:04.377Z,80.39
2022-12-23T14:44:08.029Z,79.12
2022-12-23T14:47:11.826Z,80.31
2022-12-23T14:50:16.066Z,79.79
2022-12-23T14:53:20.342Z,80.02
2022-12-23T14:56:24.198Z,79.10
2022-12-23T14:59:28.090Z,78.17
2022-12-23T15:02:32.218Z,78.96
2022-12-23T15:05:36.281Z,79.59
2022-12-23T15:08:40.973Z,79.44
2022-12-23T15:11:44.851Z,80.45
2022-12-23T15:14:48.885Z,80.59
2022-12-23T15:17:53.009Z,79.23
2022-12-23T15:20:57.235Z,79.29
2022-12-23T15:24:00.808Z,78.45
2022-12-23T15:27:25.983Z,78.62
2022-12-23T15:30:28.206Z,78.67
2022-12-23T15:36:56.195Z,77.72
2022-12-23T15:40:09.349Z,80.39
2022-12-23T15:43:16.247Z,81.21
2022-12-23T15:46:25.337Z,80.45
2022-12-23T15:49:34.648Z,79.30
2022-12-23T15:52:38.338Z,79.78
2022-12-23T15:55:42.231Z,78.80
2022-12-23T15:58:46.193Z,78.80
2022-12-23T16:01:50.474Z,79.10
2022-12-23T16:04:54.660Z,80.06
2022-12-23T16:07:58.561Z,80.74
2022-12-23T16:11:02.393Z,80.67
2022-12-23T16:14:06.367Z,80.39
2022-12-23T16:17:10.430Z,80.90
2022-12-23T16:20:15.402Z,81.51
2022-12-23T16:23:19.289Z,82.01
2022-12-23T16:26:23.311Z,79.53
2022-12-23T16:29:27.444Z,78.96
2022-12-23T16:32:31.736Z,80.01
2022-12-23T16:35:36.027Z,79.36
2022-12-23T16:38:39.888Z,80.80
2022-12-23T16:41:44.176Z,82.96
2022-12-23T16:44:48.211Z,84.71
2022-12-23T16:47:52.332Z,84.76
2022-12-23T16:50:56.613Z,83.58
2022-12-23T16:54:00.591Z,82.40
2022-12-23T16:57:04.654Z,82.50
2022-12-23T17:00:08.800Z,82.16
2022-12-23T17:03:12.636Z,81.08
2022-12-23T17:06:16.644Z,79.87
2022-12-23T17:09:20.635Z,80.28
2022-12-23T17:12:24.748Z,79.92
2022-12-23T17:15:28.898Z,79.19
2022-12-23T17:18:32.722Z,79.43
2022-12-23T17:21:36.380Z,79.03
2022-12-23T17:24:41.180Z,79.91
2022-12-23T17:27:45.169Z,80.58
2022-12-23T17:30:49.066Z,80.15
2022-12-23T17:33:53.248Z,80.54
2022-12-23T17:36:57.515Z,79.65
2022-12-23T17:40:01.380Z,80.89
2022-12-23T17:43:05.469Z,80.92
2022-12-23T17:46:09.302Z,80.05
2022-12-23T17:49:13.153Z,79.41
2022-12-23T17:52:17.317Z,79.66
2022-12-23T17:55:21.272Z,81.64
2022-12-23T17:58:25.188Z,82.68
2022-12-23T18:01:29.174Z,83.72
2022-12-23T18:04:32.901Z,84.70
2022-12-23T18:07:36.934Z,85.91
2022-12-23T18:10:40.948Z,83.68
2022-12-23T18:13:44.804Z,84.83
2022-12-23T18:16:49.307Z,84.48
2022-12-23T18:19:53.498Z,84.35
2022-12-23T18:22:57.738Z,83.34
2022-12-23T18:26:01.617Z,83.65
2022-12-23T18:29:05.401Z,82.64
2022-12-23T18:32:09.470Z,82.56
2022-12-23T18:35:13.562Z,82.17
2022-12-23T18:38:17.591Z,81.54
2022-12-23T18:41:21.538Z,81.33
2022-12-23T18:44:25.607Z,79.92
2022-12-23T18:47:29.427Z,80.95
2022-12-23T18:50:33.416Z,79.90
2022-12-23T18:53:37.431Z,81.00
2022-12-23T18:56:41.437Z,81.01
2022-12-23T18:59:46.480Z,80.36
2022-12-23T19:02:50.529Z,79.13
2022-12-23T19:05:54.683Z,79.07
2022-12-23T19:08:58.529Z,79.68
2022-12-23T19:12:02.713Z,79.14
2022-12-23T19:15:06.842Z,80.64
2022-12-23T19:18:10.806Z,81.14
2022-12-23T19:21:14.677Z,80.30
2022-12-23T19:24:18.775Z,79.31
2022-12-23T19:27:22.811Z,79.31
2022-12-23T19:30:26.870Z,79.15
2022-12-23T19:33:30.767Z,82.33
2022-12-23T19:36:34.704Z,81.81
2022-12-23T19:39:38.730Z,80.55
2022-12-23T19:42:42.549Z,79.66
2022-12-23T19:45:46.791Z,78.96
2022-12-23T19:48:50.622Z,79.62
2022-12-23T19:51:54.531Z,79.71
2022-12-23T19:54:58.373Z,79.35
2022-12-23T19:58:02.556Z,79.15
2022-12-23T20:01:06.562Z,78.82
2022-12-23T20:04:10.505Z,79.20
2022-12-23T20:07:14.339Z,78.88
2022-12-23T20:10:18.368Z,80.00
2022-12-23T20:13:22.550Z,79.55
2022-12-23T20:16:26.601Z,79.69
2022-12-23T20:19:30.554Z,79.81
2022-12-23T20:22:34.807Z,78.69
2022-12-23T20:25:38.694Z,78.70
2022-12-23T20:28:42.551Z,78.39
2022-12-23T20:31:46.505Z,77.38
2022-12-23T20:34:50.225Z,79.19
2022-12-23T20:37:54.336Z,79.57
2022-12-23T20:40:58.349Z,78.99
2022-12-23T20:44:33.348Z,78.35
2022-12-23T20:47:25.829Z,77.67
2022-12-23T20:50:29.758Z,78.48
2022-12-23T20:53:33.932Z,78.64
2022-12-23T20:56:37.899Z,78.12
2022-12-23T20:59:41.889Z,77.39
2022-12-23T21:02:45.845Z,77.71
2022-12-23T21:05:49.771Z,77.15
2022-12-23T21:08:54.190Z,78.04
2022-12-23T21:11:58.287Z,78.58
2022-12-23T21:15:02.227Z,78.55
2022-12-23T21:18:06.121Z,78.48
2022-12-23T21:21:10.074Z,77.90
2022-12-23T21:24:14.186Z,76.74
2022-12-23T21:27:18.390Z,76.38
2022-12-23T21:30:22.177Z,77.68
2022-12-23T21:33:26.340Z,77.01
2022-12-23T21:36:30.461Z,77.01
2022-12-23T21:39:34.472Z,77.72
2022-12-23T21:42:38.325Z,76.29
2022-12-23T21:45:42.339Z,78.40
2022-12-23T21:48:46.627Z,78.22
2022-12-23T21:51:50.706Z,78.92
2022-12-23T21:54:54.771Z,77.72
2022-12-23T21:57:58.627Z,78.78
2022-12-23T22:01:02.604Z,77.96
2022-12-23T22:04:06.756Z,78.86
2022-12-23T22:07:10.946Z,78.43
2022-12-23T22:10:14.862Z,78.78
2022-12-23T22:13:18.915Z,79.44
2022-12-23T22:16:22.873Z,79.39
2022-12-23T22:19:26.996Z,79.82
2022-12-23T22:22:31.015Z,79.12
2022-12-23T22:25:34.787Z,78.40
2022-12-23T22:28:38.639Z,78.04
2022-12-23T22:31:42.723Z,79.00
2022-12-23T22:34:46.494Z,79.40
2022-12-23T22:37:50.408Z,78.67
2022-12-23T22:40:54.405Z,78.95
2022-12-23T22:43:58.564Z,79.48
2022-12-23T22:47:02.742Z,79.21
2022-12-23T22:50:06.895Z,78.95
2022-12-23T22:53:10.783Z,77.86
2022-12-23T22:56:15.104Z,77.78
2022-12-23T22:59:18.930Z,78.55
2022-12-23T23:02:23.074Z,79.89
2022-12-23T23:05:27.204Z,79.77
2022-12-23T23:08:31.229Z,77.84
2022-12-23T23:11:35.269Z,78.65
2022-12-23T23:14:39.473Z,78.98
2022-12-23T23:17:43.764Z,80.23
2022-12-23T23:20:47.619Z,78.69
2022-12-23T23:23:51.725Z,79.36
2022-12-23T23:26:55.779Z,78.41
2022-12-23T23:29:59.953Z,79.82
2022-12-23T23:33:03.814Z,80.11
2022-12-23T23:36:07.633Z,80.42
2022-12-23T23:39:11.681Z,79.59
2022-12-23T23:42:15.689Z,80.27
2022-12-23T23:45:19.795Z,80.98
2022-12-23T23:48:25.552Z,81.43
2022-12-23T23:51:29.541Z,81.63
2022-12-23T23:54:33.321Z,81.17
2022-12-23T23:57:37.514Z,82.09
